Main page
METAR-TAF:

METAR-TAF

Airports :

Multan, Pakistan

Multan International Airport

latitude: 30-12-12N, longitude: 71-25-09E, elevation: 122 m

Current weather observation

The report was made 1 hour and 15 minutes ago, at 18:00 UTC
Calm wind
Temperature 25°C
Humidity 65%
Pressure 1004 hPa
Visibility: 4000 m
smoke

METAR: OPMT 211800Z 00000KT 4000 FU NSC 25/18 Q1004 NOSIG

Time: 00:15 (19:15 UTC)

Forecast

The report was made 3 hours and 15 minutes ago, at 16:00 UTC
Forecast valid from 21 at 18 UTC to 22 at 12 UTC
Wind 5 kt from the Southeast
Visibility: 3000 m
smoke
Probability 30% :
Temporary
from 22 at 01 UTC to 22 at 05 UTC
Wind kt from the North
Visibility: 1500 m
mist

TAF: OPMT 211600Z 2118/2212 13005KT 3000 FU NSC TN19/2201Z TX34/2210Z PROB30 TEMPO 2201/2205 00000KT 1500 BR NSC

Weather observations and forecasts of more than 4000 airports (METAR and TAF reports).

The available stations are represented by yellow and red dots on the map.

Hover mouse over dot to see the name of the station.

Then click to see weather observations and forecasts.

To change the map : click on the green buttons with a black cross to zoom in, on the green button with a dash to zoom out, or on the green arrows for adjacent maps.


METAR-TAF: